createdAt,value
2023-05-18T00:05:02.409Z,14.88
2023-05-18T00:10:09.933Z,14.70
2023-05-18T00:15:13.811Z,15.30
2023-05-18T00:20:22.304Z,14.57
2023-05-18T00:25:25.856Z,15.77
2023-05-18T00:30:29.345Z,14.10
2023-05-18T00:35:34.154Z,15.15
2023-05-18T00:40:37.703Z,15.73
2023-05-18T00:45:41.293Z,15.88
2023-05-18T00:50:46.664Z,13.23
2023-05-18T00:55:50.081Z,14.90
2023-05-18T01:00:54.076Z,15.02
2023-05-18T01:05:59.172Z,15.13
2023-05-18T01:11:09.411Z,15.13
2023-05-18T01:16:18.385Z,14.80
2023-05-18T01:21:34.574Z,14.25
2023-05-18T01:26:45.428Z,16.15
2023-05-18T01:31:48.969Z,17.15
2023-05-18T01:36:52.685Z,15.48
2023-05-18T01:42:04.936Z,16.15
2023-05-18T01:47:14.667Z,16.65
2023-05-18T01:52:21.448Z,15.18
2023-05-18T01:57:31.340Z,15.85
2023-05-18T02:02:35.311Z,17.60
2023-05-18T02:07:39.274Z,18.08
2023-05-18T02:12:44.187Z,16.85
2023-05-18T02:17:47.801Z,17.20
2023-05-18T02:23:11.191Z,16.80
2023-05-18T02:28:15.979Z,17.30
2023-05-18T02:33:19.888Z,15.98
2023-05-18T02:38:23.502Z,16.02
2023-05-18T02:43:28.451Z,16.95
2023-05-18T02:48:32.537Z,15.10
2023-05-18T02:53:36.008Z,15.93
2023-05-18T02:58:43.840Z,16.02
2023-05-18T03:03:47.669Z,17.75
2023-05-18T03:08:54.441Z,23.67
2023-05-18T03:13:59.318Z,20.63
2023-05-18T03:19:03.040Z,17.63
2023-05-18T03:24:07.396Z,16.73
2023-05-18T03:29:13.651Z,14.85
2023-05-18T03:34:17.575Z,14.90
2023-05-18T03:39:21.254Z,17.05
2023-05-18T03:44:26.268Z,22.05
2023-05-18T03:49:30.046Z,29.67
2023-05-18T03:54:34.107Z,21.60
2023-05-18T03:59:39.013Z,14.63
2023-05-18T04:04:46.075Z,13.45
2023-05-18T04:09:50.226Z,12.93
2023-05-18T04:14:55.225Z,11.65
2023-05-18T04:19:58.673Z,9.73
2023-05-18T04:25:02.500Z,9.82
2023-05-18T04:30:11.012Z,10.02
2023-05-18T04:35:14.508Z,9.40
2023-05-18T04:40:18.130Z,9.60
2023-05-18T04:45:23.240Z,9.48
2023-05-18T04:50:26.710Z,7.38
2023-05-18T04:55:31.433Z,8.02
2023-05-18T05:00:36.752Z,7.30
2023-05-18T05:05:40.529Z,5.93
2023-05-18T05:10:44.030Z,6.75
2023-05-18T05:15:49.284Z,5.93
2023-05-18T05:20:52.727Z,5.82
2023-05-18T05:25:56.173Z,5.63
2023-05-18T05:31:01.230Z,5.15
2023-05-18T05:36:05.461Z,5.18
2023-05-18T05:41:08.948Z,5.18
2023-05-18T05:46:13.943Z,5.00
2023-05-18T05:51:18.420Z,5.32
2023-05-18T05:56:21.838Z,4.57
2023-05-18T06:01:27.553Z,4.30
2023-05-18T06:06:31.592Z,5.00
2023-05-18T06:11:35.207Z,4.88
2023-05-18T06:16:40.347Z,4.18
2023-05-18T06:21:43.946Z,4.85
2023-05-18T06:26:47.558Z,4.28
2023-05-18T06:31:52.510Z,4.10
2023-05-18T06:36:56.230Z,4.53
2023-05-18T06:41:59.632Z,4.47
2023-05-18T06:47:04.765Z,4.00
2023-05-18T06:52:10.039Z,4.28
2023-05-18T06:57:13.603Z,4.43
2023-05-18T07:02:18.527Z,4.50
2023-05-18T07:07:22.287Z,4.03
2023-05-18T07:12:26.368Z,4.50
2023-05-18T07:17:31.812Z,3.80
2023-05-18T07:22:35.320Z,4.18
2023-05-18T07:27:38.901Z,4.43
2023-05-18T07:32:45.699Z,3.60
2023-05-18T07:37:51.976Z,3.75
2023-05-18T07:42:55.690Z,3.88
2023-05-18T07:48:01.237Z,4.60
2023-05-18T07:53:04.804Z,4.38
2023-05-18T07:58:08.174Z,4.82
2023-05-18T08:03:13.141Z,5.22
2023-05-18T08:08:16.834Z,4.88
2023-05-18T08:13:20.778Z,4.60
2023-05-18T08:18:26.507Z,4.28
2023-05-18T08:23:30.204Z,4.20
2023-05-18T08:28:33.855Z,4.30
2023-05-18T08:33:38.796Z,4.38
2023-05-18T08:38:42.748Z,4.07
2023-05-18T08:43:50.308Z,4.35
2023-05-18T08:48:57.476Z,4.68
2023-05-18T08:54:01.954Z,4.25
2023-05-18T08:59:08.172Z,4.55
2023-05-18T09:04:13.998Z,4.53
2023-05-18T09:09:17.978Z,4.70
2023-05-18T09:14:25.830Z,4.82
2023-05-18T09:19:30.752Z,5.25
2023-05-18T09:24:34.712Z,4.13
2023-05-18T09:29:38.112Z,4.18
2023-05-18T09:34:45.579Z,3.80
2023-05-18T09:40:00.340Z,4.70
2023-05-18T09:45:04.302Z,4.68
2023-05-18T09:50:11.476Z,4.50
2023-05-18T09:55:17.190Z,4.25
2023-05-18T10:00:24.858Z,4.43
2023-05-18T10:05:34.736Z,4.00
2023-05-18T10:10:40.494Z,4.25
2023-05-18T10:15:49.781Z,4.25
2023-05-18T10:20:59.300Z,4.40
2023-05-18T10:26:07.191Z,4.63
2023-05-18T10:31:10.966Z,4.15
2023-05-18T10:36:18.960Z,4.20
2023-05-18T10:41:23.752Z,4.65
2023-05-18T10:46:27.759Z,4.10
2023-05-18T10:51:34.001Z,4.22
2023-05-18T10:56:37.788Z,4.13
2023-05-18T11:01:42.832Z,4.20
2023-05-18T11:06:56.936Z,4.25
2023-05-18T11:12:01.514Z,4.05
2023-05-18T11:17:20.803Z,4.22
2023-05-18T11:22:25.613Z,4.22
2023-05-18T11:27:30.704Z,4.13
2023-05-18T11:32:34.363Z,4.30
2023-05-18T11:37:51.764Z,4.57
2023-05-18T11:43:00.003Z,4.47
2023-05-18T11:48:04.067Z,4.50
2023-05-18T11:53:09.078Z,4.20
2023-05-18T11:58:19.013Z,4.20
2023-05-18T12:03:25.458Z,4.82
2023-05-18T12:08:30.784Z,4.40
2023-05-18T12:13:34.818Z,3.90
2023-05-18T12:18:40.215Z,3.97
2023-05-18T12:23:45.546Z,4.00
2023-05-18T12:28:51.858Z,3.65
2023-05-18T12:33:58.844Z,3.75
2023-05-18T12:39:04.242Z,3.90
2023-05-18T12:44:07.668Z,3.83
2023-05-18T12:49:11.937Z,3.70
2023-05-18T12:54:16.764Z,3.95
2023-05-18T12:59:20.874Z,3.42
2023-05-18T13:04:24.617Z,5.00
2023-05-18T13:09:29.578Z,3.70
2023-05-18T13:14:39.678Z,3.67
2023-05-18T13:19:43.262Z,3.60
2023-05-18T13:24:48.033Z,3.72
2023-05-18T13:29:51.552Z,4.20
2023-05-18T13:34:55.199Z,4.07
2023-05-18T13:40:00.085Z,4.15
2023-05-18T13:45:03.534Z,3.45
2023-05-18T13:50:08.139Z,4.00
2023-05-18T13:55:12.964Z,3.78
2023-05-18T14:00:17.534Z,3.90
2023-05-18T14:05:21.021Z,3.58
2023-05-18T14:10:26.032Z,4.10
2023-05-18T14:15:29.473Z,3.88
2023-05-18T14:20:34.058Z,3.83
2023-05-18T14:25:39.176Z,3.80
2023-05-18T14:30:42.733Z,3.42
2023-05-18T14:35:46.258Z,3.65
2023-05-18T14:40:51.202Z,3.72
2023-05-18T14:46:07.510Z,3.83
2023-05-18T14:51:12.000Z,3.80
2023-05-18T14:56:16.803Z,3.63
2023-05-18T15:01:20.229Z,3.35
2023-05-18T15:06:23.635Z,3.70
2023-05-18T15:11:28.580Z,3.83
2023-05-18T15:16:32.305Z,4.22
2023-05-18T15:21:35.682Z,4.30
2023-05-18T15:26:41.049Z,4.18
2023-05-18T15:31:44.780Z,4.15
2023-05-18T15:36:48.850Z,4.25
2023-05-18T15:41:53.754Z,4.65
2023-05-18T15:46:57.112Z,4.63
2023-05-18T15:52:00.492Z,4.20
2023-05-18T15:57:06.348Z,4.60
2023-05-18T16:02:09.907Z,6.20
2023-05-18T16:07:15.084Z,5.50
2023-05-18T16:12:19.949Z,4.28
2023-05-18T16:17:23.428Z,4.75
2023-05-18T16:22:27.038Z,5.32
2023-05-18T16:27:31.872Z,4.75
2023-05-18T16:32:35.539Z,6.20
2023-05-18T16:37:39.206Z,5.25
2023-05-18T16:42:47.479Z,5.53
2023-05-18T16:47:51.024Z,5.72
2023-05-18T16:52:54.586Z,5.30
2023-05-18T16:57:59.596Z,5.72
2023-05-18T17:03:04.451Z,5.32
2023-05-18T17:08:07.936Z,5.32
2023-05-18T17:13:12.734Z,5.50
2023-05-18T17:18:16.494Z,5.03
2023-05-18T17:23:20.007Z,5.55
2023-05-18T17:28:24.904Z,6.32
2023-05-18T17:33:28.335Z,5.57
2023-05-18T17:38:31.719Z,5.85
2023-05-18T17:43:37.768Z,5.53
2023-05-18T17:48:41.455Z,6.13
2023-05-18T17:53:45.356Z,6.05
2023-05-18T17:58:50.332Z,5.55
2023-05-18T18:03:53.909Z,5.43
2023-05-18T18:08:58.653Z,6.70
2023-05-18T18:14:03.813Z,5.63
2023-05-18T18:19:08.798Z,5.15
2023-05-18T18:24:14.144Z,5.85
2023-05-18T18:29:19.055Z,5.32
2023-05-18T18:34:22.667Z,6.05
2023-05-18T18:39:26.324Z,5.95
2023-05-18T18:44:31.244Z,6.53
2023-05-18T18:49:34.842Z,7.25
2023-05-18T18:54:38.656Z,7.88
2023-05-18T18:59:43.509Z,7.63
2023-05-18T19:04:47.128Z,8.65
2023-05-18T19:09:50.749Z,7.93
2023-05-18T19:14:55.638Z,8.35
2023-05-18T19:19:59.065Z,7.35
2023-05-18T19:25:02.653Z,7.10
2023-05-18T19:30:11.569Z,6.93
2023-05-18T19:35:15.318Z,6.88
2023-05-18T19:40:19.270Z,8.40
2023-05-18T19:45:25.207Z,7.72
2023-05-18T19:50:28.699Z,7.85
2023-05-18T19:55:32.636Z,8.45
2023-05-18T20:00:41.398Z,7.85
2023-05-18T20:05:44.950Z,8.57
2023-05-18T20:10:48.964Z,9.45
2023-05-18T20:15:53.884Z,8.48
2023-05-18T20:20:57.751Z,9.07
2023-05-18T20:26:01.382Z,8.82
2023-05-18T20:31:06.406Z,8.57
2023-05-18T20:36:10.214Z,9.82
2023-05-18T20:41:13.720Z,9.05
2023-05-18T20:46:23.173Z,9.25
2023-05-18T20:51:28.258Z,9.23
2023-05-18T20:56:31.870Z,8.93
2023-05-18T21:01:39.461Z,9.10
2023-05-18T21:06:44.221Z,8.50
2023-05-18T21:11:47.686Z,8.95
2023-05-18T21:16:52.776Z,8.60
2023-05-18T21:21:56.249Z,8.80
2023-05-18T21:27:00.059Z,8.48
2023-05-18T21:32:05.500Z,8.40
2023-05-18T21:37:09.413Z,8.23
2023-05-18T21:42:12.869Z,8.25
2023-05-18T21:47:17.698Z,9.00
2023-05-18T21:52:21.342Z,8.27
2023-05-18T21:57:25.003Z,8.77
2023-05-18T22:02:29.929Z,8.50
2023-05-18T22:07:33.402Z,8.25
2023-05-18T22:12:37.989Z,8.63
2023-05-18T22:17:43.092Z,8.93
2023-05-18T22:22:46.704Z,9.32
2023-05-18T22:27:50.321Z,8.98
2023-05-18T22:32:55.265Z,8.85
2023-05-18T22:37:58.795Z,9.27
2023-05-18T22:43:02.173Z,9.10
2023-05-18T22:48:07.409Z,8.52
2023-05-18T22:53:12.105Z,9.10
2023-05-18T22:58:15.722Z,8.35
2023-05-18T23:03:20.693Z,8.10
2023-05-18T23:08:24.182Z,8.43
2023-05-18T23:13:27.657Z,8.40
2023-05-18T23:18:32.590Z,9.73
2023-05-18T23:23:36.243Z,8.82
2023-05-18T23:28:39.943Z,8.40
2023-05-18T23:33:45.748Z,8.63
2023-05-18T23:38:51.156Z,9.20
2023-05-18T23:43:55.171Z,9.23
2023-05-18T23:49:00.978Z,9.45
2023-05-18T23:54:07.318Z,9.85
2023-05-18T23:59:12.985Z,9.85
